• Join FlightAware (Why Join?)
  • Login
  • US Flag 
05:50AM EDT


 

Airport Tracker/Info


-or-


 

Live Flight TrackerFlight Track Log ✈ EGF4016 ✈ 11-Jun-2013 ✈ KALO - KORD

Flight Track Log - Related Links

Times and Time Zones

All times are in EDT time to prevent confusion due to time zone crossing. See the EGF4016 flight status page for this flight to view local times or setup timezone preferences in your user account.

Time Position Orientation Groundspeed Altitude Reporting Facility
EDT Latitude Longitude Course Direction KTS MPH feet Rate Location/Type
08:00AM 42.5317 -92.3508 90° East 192 221 2,500  Level Chicago Center
08:01AM 42.5194 -92.2736 102° East 227 261 4,500 1,680 Climbing Chicago Center
08:02AM 42.5142 -92.1769 94° East 244 281 6,000 1,740 Climbing Chicago Center
08:03AM 42.5028 -91.8995 96° East  Level FlightAware Approximate
08:03AM 42.5067 -92.0686 95° East 272 313 8,100  Level Chicago Center
08:04AM 42.4916 -91.7740 97° East  Level FlightAware Approximate
08:04AM 42.4828 -91.9611 107° East 304 350 10,000  Level Chicago Center
08:05AM 42.4833 -91.6513 90° East  Level FlightAware Approximate
08:05AM 42.4444 -91.8278 111° Southeast 321 369 11,600  Level Chicago Center
08:06AM 42.4097 -91.7036 111° Southeast 354 407 12,800 1,260 Climbing Chicago Center
08:07AM 42.4022 -91.5714 94° East 362 417 14,200 1,380 Climbing Chicago Center
08:08AM 42.4164 -91.4319 82° East 378 435 15,700 900 Climbing Chicago Center
08:09AM 42.4258 -91.2903 85° East 384 442 16,100 180 Climbing Chicago Center
08:10AM 42.4383 -91.0994 85° East 426 490 16,100 -60 Level Chicago Center
08:11AM 42.4497 -90.9369 85° East 437 503 16,000  Descending Chicago Center
08:12AM 42.4597 -90.7742 85° East 438 504 16,200 780 Climbing Chicago Center
08:13AM 42.4700 -90.6161 85° East 430 495 17,700 1,560 Climbing Chicago Center
08:14AM 42.4806 -90.4311 86° East 417 480 19,500 1,500 Climbing Chicago Center
08:15AM 42.4894 -90.2775 85° East 415 478 20,900 720 Climbing Chicago Center
08:16AM 42.4756 -90.1169 97° East 433 498 21,000  Climbing Chicago Center
08:17AM 42.4650 -89.9450 95° East 460 529 21,000  Level Chicago Center
08:18AM 42.4550 -89.7503 94° East 468 539 21,000  Level Chicago Center
08:19AM 42.4442 -89.5758 95° East 466 536 21,000  Level Chicago Center
08:20AM 42.4325 -89.3997 95° East 468 539 21,000 -480 Level Chicago Center
08:21AM 42.4231 -89.2258 94° East 465 535 20,100 -1,860 Descending Chicago Center
08:22AM 42.4086 -89.0286 96° East 454 522 17,200 -2,700 Descending Chicago Center
08:23AM 42.3986 -88.8650 95° East 441 507 14,600 -2,520 Descending Chicago Center
08:24AM 42.3886 -88.7053 95° East 430 495 12,000 -2,220 Descending Chicago Center
08:25AM 42.3781 -88.5561 95° East 409 471 10,100 -1,020 Descending Chicago Center
08:26AM 42.3519 -88.4158 104° East 396 456 10,000 -60 Descending Chicago Center
08:27AM 42.2892 -88.2997 126° Southeast 388 447 10,000  Level Chicago Center
08:29AM 42.2189 -88.1878 130° Southeast 390 449 10,000 -240 Level Chicago Center
08:30AM 42.1364 -88.0781 135° Southeast 354 407 9,500 -840 Descending Chicago Center
08:30AM 42.1167 -88.0500 133° Southeast 316 364 8,900 -1,500 Descending Chicago TRACON
08:31AM 42.0833 -87.9333 111° Southeast 312 359 7,500 -1,200 Descending Chicago TRACON
08:32AM 42.0833 -87.8500 90° East 270 311 6,600 -840 Descending Chicago TRACON
08:33AM 42.0906 -87.7869 81° East 258 297 6,100 -660 Descending Chicago Center